Terminal Aerodrome Forecast
Issued by NWS

Home | Current Version | Previous Version | Text Only | Print | Product List | Glossary On
Versions: 1 2 3 4 5 6 7 8 9 10 11 12 13 14 15 16 17 18 19
000
FTUS46 KLOX 271748
TAFSBP
TAF
KSBP 271748Z 2718/2818 00000KT P6SM OVC018
     FM271820 30008KT P6SM SCT018
     FM272000 31015KT P6SM SKC
     FM280300 31007KT P6SM SCT008
     FM280500 VRB03KT P6SM BKN010
     FM280900 VRB03KT P6SM OVC007=

USA.gov is the U.S. government's official web portal to all federal, state and local government web resources and services.